Lexington, Oklahoma
Current Conditions -  °F | °C
As of 5:55 PM on Saturday 25 Oct 2014 (Local Time) from KOUN Reporting Station
Clear Clear  
Wind Chill: 86°   Ceiling: Unl
Heat Index: 86°   Visibility: 10mi
Dew Point: 59°   Wind: 6mph
Humidity: 40%   Direction: 190°S
Pressure: 30.03"   Gusts: NA
Location:  35.01°N, 97.34°W
Report Text: KOUN 252255Z AUTO 19005KT 10SM CLR 30/15 A3003 RMK AO2
Loading
Personal Weather Stations






























Interactive Weather Map
Tropical Storm Tracking
New forecast layout! Learn more

10-Day Weather Forecast

Advertisements
Track Severe Weather on mobile